createdAt,value
2019-01-29T00:02:03.830Z,1.50
2019-01-29T00:04:31.284Z,0.87
2019-01-29T00:06:58.761Z,0.97
2019-01-29T00:09:26.231Z,1.07
2019-01-29T00:11:53.795Z,1.40
2019-01-29T00:14:21.397Z,1.30
2019-01-29T00:16:49.621Z,1.63
2019-01-29T00:19:17.082Z,1.10
2019-01-29T00:21:44.664Z,0.97
2019-01-29T00:24:12.126Z,1.03
2019-01-29T00:26:39.765Z,1.00
2019-01-29T00:29:07.260Z,0.93
2019-01-29T00:31:34.820Z,1.10
2019-01-29T00:34:02.285Z,1.07
2019-01-29T00:36:29.732Z,1.80
2019-01-29T00:38:57.211Z,0.83
2019-01-29T00:41:24.685Z,1.53
2019-01-29T00:43:52.234Z,1.43
2019-01-29T00:46:19.691Z,1.97
2019-01-29T00:48:47.364Z,1.20
2019-01-29T00:51:14.814Z,1.10
2019-01-29T00:53:42.272Z,1.10
2019-01-29T00:56:09.845Z,1.10
2019-01-29T00:58:37.407Z,1.37
2019-01-29T01:01:04.960Z,1.73
2019-01-29T01:03:32.533Z,1.13
2019-01-29T01:05:59.976Z,1.90
2019-01-29T01:08:27.441Z,1.00
2019-01-29T01:10:54.922Z,0.90
2019-01-29T01:13:22.487Z,0.83
2019-01-29T01:15:49.949Z,1.30
2019-01-29T01:18:17.424Z,1.00
2019-01-29T01:20:44.889Z,1.17
2019-01-29T01:23:12.429Z,0.83
2019-01-29T01:25:40.005Z,1.27
2019-01-29T01:28:07.454Z,1.23
2019-01-29T01:30:34.931Z,0.80
2019-01-29T01:33:02.475Z,0.80
2019-01-29T01:35:29.932Z,0.80
2019-01-29T01:37:57.395Z,0.77
2019-01-29T01:40:24.963Z,1.10
2019-01-29T01:42:52.418Z,1.20
2019-01-29T01:45:19.907Z,0.80
2019-01-29T01:47:47.372Z,0.93
2019-01-29T01:50:14.814Z,1.07
2019-01-29T01:52:42.285Z,1.73
2019-01-29T01:55:11.387Z,0.70
2019-01-29T01:57:39.042Z,1.20
2019-01-29T02:00:07.290Z,0.80
2019-01-29T02:02:34.823Z,1.00
2019-01-29T02:05:03.984Z,1.00
2019-01-29T02:07:31.442Z,0.80
2019-01-29T02:09:58.883Z,0.93
2019-01-29T02:12:26.365Z,1.10
2019-01-29T02:14:53.823Z,0.73
2019-01-29T02:17:21.293Z,0.90
2019-01-29T02:19:48.901Z,1.00
2019-01-29T02:22:17.126Z,1.00
2019-01-29T02:24:44.584Z,0.80
2019-01-29T02:27:12.072Z,0.97
2019-01-29T02:29:39.534Z,1.00
2019-01-29T02:32:07.006Z,1.10
2019-01-29T02:34:34.559Z,0.80
2019-01-29T02:37:02.168Z,1.07
2019-01-29T02:39:29.632Z,0.90
2019-01-29T02:41:57.137Z,0.80
2019-01-29T02:44:24.593Z,1.23
2019-01-29T02:46:52.062Z,1.20
2019-01-29T02:49:19.522Z,0.90
2019-01-29T02:51:47.010Z,0.90
2019-01-29T02:54:14.450Z,1.10
2019-01-29T02:56:41.912Z,0.93
2019-01-29T02:59:09.466Z,1.07
2019-01-29T03:01:36.917Z,1.00
2019-01-29T03:04:04.386Z,1.10
2019-01-29T03:06:31.866Z,0.97
2019-01-29T03:09:00.839Z,0.90
2019-01-29T03:11:28.323Z,0.97
2019-01-29T03:13:55.889Z,1.00
2019-01-29T03:16:23.353Z,1.30
2019-01-29T03:18:50.892Z,0.70
2019-01-29T03:21:18.358Z,0.70
2019-01-29T03:23:45.849Z,1.50
2019-01-29T03:26:13.401Z,1.07
2019-01-29T03:28:40.861Z,0.83
2019-01-29T03:31:08.424Z,1.20
2019-01-29T03:33:35.885Z,1.23
2019-01-29T03:36:04.749Z,1.02
2019-01-29T03:38:32.221Z,1.10
2019-01-29T03:40:59.697Z,0.93
2019-01-29T03:43:27.153Z,0.90
2019-01-29T03:45:54.598Z,1.37
2019-01-29T03:48:22.188Z,0.90
2019-01-29T03:50:49.649Z,1.30
2019-01-29T03:53:17.218Z,1.07
2019-01-29T03:55:45.438Z,0.73
2019-01-29T03:58:13.664Z,1.13
2019-01-29T04:00:41.246Z,1.00
2019-01-29T04:03:08.697Z,0.80
2019-01-29T04:05:36.170Z,1.17
2019-01-29T04:08:04.709Z,1.35
2019-01-29T04:10:32.167Z,0.97
2019-01-29T04:12:59.635Z,0.93
2019-01-29T04:15:27.142Z,0.90
2019-01-29T04:17:55.364Z,1.27
2019-01-29T04:20:23.643Z,0.87
2019-01-29T04:22:51.095Z,1.00
2019-01-29T04:25:19.336Z,1.60
2019-01-29T04:27:46.792Z,0.97
2019-01-29T04:30:14.261Z,0.90
2019-01-29T04:32:41.723Z,1.10
2019-01-29T04:35:10.693Z,1.23
2019-01-29T04:37:38.148Z,1.10
2019-01-29T04:40:06.390Z,0.90
2019-01-29T04:42:34.634Z,1.23
2019-01-29T04:45:02.116Z,0.90
2019-01-29T04:47:29.554Z,0.90
2019-01-29T04:49:57.020Z,1.27
2019-01-29T04:52:24.552Z,1.00
2019-01-29T04:54:52.049Z,1.20
2019-01-29T04:57:19.606Z,1.20
2019-01-29T04:59:47.064Z,1.20
2019-01-29T05:02:14.629Z,1.30
2019-01-29T05:04:42.075Z,1.30
2019-01-29T05:07:09.603Z,1.20
2019-01-29T05:09:37.074Z,0.93
2019-01-29T05:12:04.533Z,1.30
2019-01-29T05:14:31.990Z,1.30
2019-01-29T05:16:59.445Z,1.20
2019-01-29T05:19:27.684Z,1.10
2019-01-29T05:21:55.245Z,1.10
2019-01-29T05:24:24.867Z,0.87
2019-01-29T05:26:50.278Z,1.20
2019-01-29T05:29:17.823Z,1.20
2019-01-29T05:31:45.312Z,1.00
2019-01-29T05:34:12.771Z,1.37
2019-01-29T05:36:40.232Z,1.40
2019-01-29T05:39:07.783Z,1.23
2019-01-29T05:41:35.245Z,1.30
2019-01-29T05:44:03.623Z,1.20
2019-01-29T05:46:31.094Z,1.00
2019-01-29T05:48:58.557Z,1.30
2019-01-29T05:51:26.024Z,1.30
2019-01-29T05:53:53.467Z,1.40
2019-01-29T05:56:20.919Z,1.70
2019-01-29T05:58:48.393Z,1.53
2019-01-29T06:01:15.842Z,1.50
2019-01-29T06:03:43.307Z,1.20
2019-01-29T06:06:10.775Z,1.33
2019-01-29T06:08:38.326Z,1.70
2019-01-29T06:11:05.769Z,1.37
2019-01-29T06:13:33.233Z,1.50
2019-01-29T06:16:00.719Z,1.33
2019-01-29T06:18:28.322Z,1.47
2019-01-29T06:20:55.867Z,1.60
2019-01-29T06:23:23.325Z,1.77
2019-01-29T06:25:50.894Z,0.90
2019-01-29T06:28:18.351Z,1.10
2019-01-29T06:30:45.813Z,1.70
2019-01-29T06:33:13.288Z,1.37
2019-01-29T06:35:40.744Z,1.00
2019-01-29T06:38:08.301Z,1.40
2019-01-29T06:40:35.748Z,1.20
2019-01-29T06:43:03.958Z,1.45
2019-01-29T06:45:31.509Z,1.30
2019-01-29T06:47:58.969Z,1.47
2019-01-29T06:50:26.533Z,1.30
2019-01-29T06:52:54.009Z,1.47
2019-01-29T06:55:22.283Z,1.60
2019-01-29T06:57:55.539Z,1.30
2019-01-29T07:00:22.316Z,1.30
2019-01-29T07:02:49.768Z,1.63
2019-01-29T07:05:17.342Z,1.50
2019-01-29T07:07:46.330Z,1.30
2019-01-29T07:10:14.695Z,1.30
2019-01-29T07:12:42.158Z,1.70
2019-01-29T07:15:13.593Z,1.67
2019-01-29T07:17:41.047Z,1.70
2019-01-29T07:20:08.567Z,1.90
2019-01-29T07:22:36.837Z,1.43
2019-01-29T07:25:04.320Z,1.37
2019-01-29T07:27:32.797Z,1.67
2019-01-29T07:30:00.356Z,1.93
2019-01-29T07:32:27.811Z,1.57
2019-01-29T07:34:55.283Z,1.43
2019-01-29T07:37:22.837Z,1.40
2019-01-29T07:39:50.290Z,1.47
2019-01-29T07:42:17.755Z,1.80
2019-01-29T07:44:46.034Z,1.50
2019-01-29T07:47:13.486Z,1.42
2019-01-29T07:49:40.933Z,1.27
2019-01-29T07:52:08.394Z,1.60
2019-01-29T07:54:35.853Z,1.33
2019-01-29T07:57:03.756Z,1.48
2019-01-29T07:59:33.086Z,1.77
2019-01-29T08:01:59.464Z,1.57
2019-01-29T08:04:26.961Z,1.67
2019-01-29T08:06:54.413Z,1.97
2019-01-29T08:09:21.867Z,2.40
2019-01-29T08:11:50.150Z,1.90
2019-01-29T08:14:17.616Z,1.97
2019-01-29T08:16:45.186Z,1.40
2019-01-29T08:19:12.741Z,2.10
2019-01-29T08:21:40.206Z,3.00
2019-01-29T08:24:07.677Z,2.00
2019-01-29T08:26:35.258Z,2.27
2019-01-29T08:29:04.338Z,1.90
2019-01-29T08:31:31.793Z,2.30
2019-01-29T08:33:59.297Z,2.20
2019-01-29T08:36:27.513Z,2.50
2019-01-29T08:38:54.981Z,2.40
2019-01-29T08:41:22.453Z,2.50
2019-01-29T08:43:49.902Z,3.00
2019-01-29T08:46:17.386Z,2.60
2019-01-29T08:48:44.850Z,2.63
2019-01-29T08:51:13.073Z,2.90
2019-01-29T08:53:40.537Z,3.27
2019-01-29T08:56:08.046Z,3.10
2019-01-29T08:58:35.513Z,3.23
2019-01-29T09:01:03.905Z,3.50
2019-01-29T09:03:31.392Z,3.20
2019-01-29T09:05:59.609Z,3.43
2019-01-29T09:08:27.074Z,3.60
2019-01-29T09:10:54.566Z,3.00
2019-01-29T09:13:22.142Z,3.43
2019-01-29T09:15:49.695Z,3.60
2019-01-29T09:18:17.969Z,3.17
2019-01-29T09:20:45.531Z,2.87
2019-01-29T09:23:13.000Z,3.10
2019-01-29T09:25:40.462Z,3.63
2019-01-29T09:28:08.735Z,2.80
2019-01-29T09:30:36.185Z,2.87
2019-01-29T09:33:04.564Z,3.00
2019-01-29T09:35:32.481Z,2.90
2019-01-29T09:38:00.693Z,3.13
2019-01-29T09:40:28.161Z,3.40
2019-01-29T09:42:55.617Z,3.40
2019-01-29T09:45:23.117Z,2.80
2019-01-29T09:47:50.570Z,2.53
2019-01-29T09:50:18.741Z,2.70
2019-01-29T09:52:46.197Z,2.97
2019-01-29T09:55:13.752Z,2.67
2019-01-29T09:57:41.192Z,3.33
2019-01-29T10:00:28.071Z,3.10
2019-01-29T10:02:56.310Z,2.83
2019-01-29T10:05:23.764Z,2.87
2019-01-29T10:07:51.260Z,3.10
2019-01-29T10:10:18.717Z,2.57
2019-01-29T10:12:46.185Z,3.17
2019-01-29T10:15:22.777Z,2.63
2019-01-29T10:17:51.010Z,2.83
2019-01-29T10:20:18.472Z,3.13
2019-01-29T10:22:45.938Z,2.80
2019-01-29T10:25:13.414Z,3.20
2019-01-29T10:27:41.002Z,3.30
2019-01-29T10:30:09.308Z,2.67
2019-01-29T10:32:36.753Z,3.07
2019-01-29T10:35:04.989Z,2.83
2019-01-29T10:37:32.465Z,2.80
2019-01-29T10:40:00.025Z,2.50
2019-01-29T10:42:28.133Z,2.77
2019-01-29T10:44:56.353Z,2.87
2019-01-29T10:47:23.837Z,3.00
2019-01-29T10:49:51.381Z,2.87
2019-01-29T10:52:18.872Z,2.83
2019-01-29T10:54:47.096Z,2.63
2019-01-29T10:57:14.562Z,2.80
2019-01-29T10:59:42.011Z,2.73
2019-01-29T11:02:09.524Z,3.67
2019-01-29T11:04:36.973Z,3.17
2019-01-29T11:07:04.753Z,3.07
2019-01-29T11:09:32.501Z,3.03
2019-01-29T11:12:00.003Z,3.40
2019-01-29T11:14:27.474Z,3.30
2019-01-29T11:16:55.712Z,2.47
2019-01-29T11:19:23.173Z,2.77
2019-01-29T11:21:50.633Z,3.00
2019-01-29T11:24:18.113Z,2.90
2019-01-29T11:26:45.558Z,2.83
2019-01-29T11:29:13.037Z,2.87
2019-01-29T11:31:40.595Z,3.00
2019-01-29T11:34:08.081Z,2.37
2019-01-29T11:36:36.333Z,2.67
2019-01-29T11:39:04.597Z,3.47
2019-01-29T11:41:32.057Z,2.77
2019-01-29T11:44:00.623Z,2.90
2019-01-29T11:46:26.991Z,2.43
2019-01-29T11:48:54.465Z,2.87
2019-01-29T11:51:21.986Z,2.40
2019-01-29T11:53:49.449Z,3.10
2019-01-29T11:56:16.909Z,2.77
2019-01-29T11:58:44.450Z,2.57
2019-01-29T12:01:12.674Z,2.57
2019-01-29T12:03:40.161Z,3.00
2019-01-29T12:06:07.727Z,3.00
2019-01-29T12:08:35.180Z,2.63
2019-01-29T12:11:03.670Z,3.13
2019-01-29T12:13:31.129Z,2.87
2019-01-29T12:15:58.595Z,2.10
2019-01-29T12:18:26.874Z,2.60
2019-01-29T12:20:54.341Z,2.90
2019-01-29T12:23:21.892Z,2.20
2019-01-29T12:25:49.456Z,2.30
2019-01-29T12:28:17.024Z,2.73
2019-01-29T12:30:44.498Z,2.27
2019-01-29T12:33:11.974Z,2.70
2019-01-29T12:35:40.190Z,2.70
2019-01-29T12:38:07.663Z,3.20
2019-01-29T12:40:37.125Z,2.50
2019-01-29T12:43:03.477Z,2.50
2019-01-29T12:45:31.009Z,3.07
2019-01-29T12:47:59.243Z,2.83
2019-01-29T12:50:29.505Z,2.67
2019-01-29T12:52:56.961Z,2.43
2019-01-29T12:55:24.446Z,2.47
2019-01-29T12:57:51.890Z,1.90
2019-01-29T13:00:19.360Z,2.47
2019-01-29T13:02:46.839Z,2.70
2019-01-29T13:05:14.375Z,2.20
2019-01-29T13:07:42.549Z,3.20
2019-01-29T13:10:11.075Z,2.60
2019-01-29T13:12:39.315Z,2.40
2019-01-29T13:15:06.882Z,2.20
2019-01-29T13:17:34.484Z,2.20
2019-01-29T13:20:02.720Z,2.23
2019-01-29T13:22:30.209Z,2.00
2019-01-29T13:24:57.760Z,2.07
2019-01-29T13:27:25.228Z,2.23
2019-01-29T13:29:54.195Z,2.33
2019-01-29T13:32:21.670Z,2.10
2019-01-29T13:34:49.125Z,2.37
2019-01-29T13:37:16.666Z,2.03
2019-01-29T13:39:44.167Z,2.17
2019-01-29T13:42:11.625Z,2.30
2019-01-29T13:44:39.861Z,2.37
2019-01-29T13:47:07.328Z,2.27
2019-01-29T13:49:34.821Z,2.30
2019-01-29T13:52:02.302Z,2.23
2019-01-29T13:54:29.773Z,2.20
2019-01-29T13:56:58.037Z,2.13
2019-01-29T13:59:25.515Z,2.30
2019-01-29T14:01:52.992Z,2.17
2019-01-29T14:04:21.230Z,1.93
2019-01-29T14:06:49.660Z,2.10
2019-01-29T14:09:17.445Z,1.70
2019-01-29T14:11:45.317Z,1.97
2019-01-29T14:14:12.783Z,1.87
2019-01-29T14:16:40.281Z,2.20
2019-01-29T14:19:07.738Z,2.40
2019-01-29T14:21:35.306Z,2.00
2019-01-29T14:24:03.685Z,1.97
2019-01-29T14:26:31.143Z,2.03
2019-01-29T14:28:58.602Z,2.10
2019-01-29T14:31:26.081Z,1.90
2019-01-29T14:33:53.536Z,2.00
2019-01-29T14:36:21.025Z,2.22
2019-01-29T14:41:43.516Z,2.85
2019-01-29T14:44:11.013Z,2.00
2019-01-29T14:46:38.468Z,2.20
2019-01-29T14:49:05.939Z,2.30
2019-01-29T14:51:33.403Z,3.10
2019-01-29T14:54:00.964Z,1.97
2019-01-29T14:56:28.525Z,2.10
2019-01-29T14:58:55.993Z,2.27
2019-01-29T15:01:23.614Z,2.13
2019-01-29T15:03:51.072Z,2.07
2019-01-29T15:06:18.573Z,1.90
2019-01-29T15:08:46.018Z,2.50
2019-01-29T15:11:13.506Z,2.00
2019-01-29T15:13:40.981Z,2.50
2019-01-29T15:16:10.646Z,2.10
2019-01-29T15:18:38.537Z,1.97
2019-01-29T15:21:06.002Z,2.10
2019-01-29T15:23:33.469Z,2.00
2019-01-29T15:26:00.927Z,2.23
2019-01-29T15:28:28.385Z,2.17
2019-01-29T15:30:55.953Z,2.00
2019-01-29T15:33:23.424Z,2.20
2019-01-29T15:35:50.882Z,2.30
2019-01-29T15:38:18.340Z,2.20
2019-01-29T15:40:45.811Z,2.40
2019-01-29T15:43:13.265Z,2.27
2019-01-29T15:45:40.831Z,2.73
2019-01-29T15:48:08.299Z,2.53
2019-01-29T15:50:36.577Z,2.27
2019-01-29T15:53:05.543Z,2.37
2019-01-29T15:55:32.985Z,1.97
2019-01-29T15:58:00.470Z,2.00
2019-01-29T16:00:31.646Z,3.10
2019-01-29T16:02:59.121Z,2.27
2019-01-29T16:05:28.931Z,2.20
2019-01-29T16:07:56.392Z,2.47
2019-01-29T16:10:26.391Z,2.20
2019-01-29T16:12:53.874Z,2.37
2019-01-29T16:15:22.293Z,2.30
2019-01-29T16:17:49.744Z,2.20
2019-01-29T16:20:18.799Z,2.03
2019-01-29T16:22:46.373Z,2.23
2019-01-29T16:25:14.738Z,2.20
2019-01-29T16:27:42.201Z,2.07
2019-01-29T16:30:13.491Z,2.93
2019-01-29T16:32:41.740Z,2.33
2019-01-29T16:35:09.207Z,2.30
2019-01-29T16:37:36.689Z,3.00
2019-01-29T16:40:04.905Z,2.70
2019-01-29T16:42:32.365Z,2.67
2019-01-29T16:44:59.887Z,2.83
2019-01-29T16:47:27.332Z,2.97
2019-01-29T16:49:54.794Z,2.80
2019-01-29T16:52:23.081Z,3.27
2019-01-29T16:54:50.621Z,3.20
2019-01-29T16:57:18.094Z,3.07
2019-01-29T16:59:45.558Z,3.03
2019-01-29T17:02:13.104Z,3.00
2019-01-29T17:04:40.567Z,2.63
2019-01-29T17:07:08.034Z,2.93
2019-01-29T17:09:35.486Z,3.40
2019-01-29T17:12:05.499Z,3.30
2019-01-29T17:14:32.969Z,3.20
2019-01-29T17:17:00.444Z,3.20
2019-01-29T17:19:27.912Z,3.63
2019-01-29T17:21:55.363Z,2.93
2019-01-29T17:24:22.831Z,3.67
2019-01-29T17:26:50.279Z,3.03
2019-01-29T17:29:17.735Z,3.00
2019-01-29T17:31:45.193Z,3.10
2019-01-29T17:34:12.660Z,4.03
2019-01-29T17:36:40.187Z,3.63
2019-01-29T17:39:08.544Z,3.77
2019-01-29T17:41:36.110Z,3.57
2019-01-29T17:44:04.352Z,3.20
2019-01-29T17:46:31.825Z,3.60
2019-01-29T17:48:59.298Z,3.03
2019-01-29T17:51:26.849Z,3.10
2019-01-29T17:53:54.308Z,3.27
2019-01-29T17:56:21.784Z,3.30
2019-01-29T17:58:49.238Z,3.17
2019-01-29T18:01:18.219Z,3.37
2019-01-29T18:03:45.678Z,3.60
2019-01-29T18:06:13.150Z,3.73
2019-01-29T18:08:49.437Z,3.63
2019-01-29T18:11:08.168Z,3.90
2019-01-29T18:13:35.648Z,3.37
2019-01-29T18:16:04.126Z,3.28
2019-01-29T18:18:31.690Z,3.63
2019-01-29T18:20:59.157Z,2.90
2019-01-29T18:23:26.642Z,3.80
2019-01-29T18:25:54.181Z,3.20
2019-01-29T18:28:22.484Z,3.27
2019-01-29T18:30:49.939Z,3.40
2019-01-29T18:33:17.408Z,3.50
2019-01-29T18:35:45.635Z,2.70
2019-01-29T18:38:13.135Z,3.33
2019-01-29T18:40:43.001Z,3.43
2019-01-29T18:43:11.025Z,2.93
2019-01-29T18:45:38.493Z,3.07
2019-01-29T18:48:06.098Z,2.80
2019-01-29T18:50:33.528Z,3.27
2019-01-29T18:53:01.774Z,3.40
2019-01-29T18:55:29.253Z,3.70
2019-01-29T18:57:56.738Z,2.93
2019-01-29T19:00:24.991Z,3.40
2019-01-29T19:02:52.443Z,3.47
2019-01-29T19:05:20.020Z,3.13
2019-01-29T19:07:47.477Z,3.47
2019-01-29T19:10:15.577Z,3.50
2019-01-29T19:12:43.033Z,3.50
2019-01-29T19:15:11.288Z,3.50
2019-01-29T19:17:38.845Z,3.30
2019-01-29T19:20:07.134Z,3.20
2019-01-29T19:22:34.587Z,3.23
2019-01-29T19:25:02.800Z,3.83
2019-01-29T19:27:31.040Z,3.93
2019-01-29T19:29:58.500Z,3.67
2019-01-29T19:32:25.982Z,3.30
2019-01-29T19:34:53.443Z,3.33
2019-01-29T19:37:20.915Z,3.90
2019-01-29T19:39:48.365Z,3.80
2019-01-29T19:42:15.922Z,3.37
2019-01-29T19:44:43.390Z,3.80
2019-01-29T19:47:11.792Z,3.97
2019-01-29T19:49:38.330Z,3.87
2019-01-29T19:52:05.880Z,3.30
2019-01-29T19:54:33.331Z,3.17
2019-01-29T19:57:00.913Z,4.20
2019-01-29T19:59:28.382Z,2.83
2019-01-29T20:01:56.597Z,4.23
2019-01-29T20:04:24.115Z,3.20
2019-01-29T20:06:52.345Z,3.60
2019-01-29T20:09:19.804Z,3.17
2019-01-29T20:11:47.318Z,3.33
2019-01-29T20:14:14.776Z,3.77
2019-01-29T20:16:42.232Z,3.73
2019-01-29T20:19:09.794Z,4.23
2019-01-29T20:21:37.378Z,4.20
2019-01-29T20:24:04.833Z,3.10
2019-01-29T20:26:32.310Z,3.57
2019-01-29T20:29:00.545Z,4.23
2019-01-29T20:31:28.008Z,3.67
2019-01-29T20:33:55.482Z,3.77
2019-01-29T20:36:22.942Z,3.80
2019-01-29T20:38:50.417Z,3.37
2019-01-29T20:41:17.909Z,4.33
2019-01-29T20:43:46.128Z,4.23
2019-01-29T20:46:13.595Z,3.72
2019-01-29T20:48:41.087Z,4.00
2019-01-29T20:51:09.369Z,4.10
2019-01-29T20:53:36.835Z,3.77
2019-01-29T20:56:04.314Z,4.13
2019-01-29T20:58:32.568Z,3.63
2019-01-29T21:01:00.837Z,3.97
2019-01-29T21:03:28.290Z,3.40
2019-01-29T21:05:55.750Z,3.50
2019-01-29T21:08:23.229Z,3.93
2019-01-29T21:10:50.776Z,3.60
2019-01-29T21:13:18.248Z,3.43
2019-01-29T21:15:45.840Z,3.40
2019-01-29T21:18:13.328Z,4.13
2019-01-29T21:20:40.770Z,3.83
2019-01-29T21:23:09.022Z,3.63
2019-01-29T21:25:36.485Z,4.03
2019-01-29T21:28:03.950Z,3.80
2019-01-29T21:30:32.133Z,3.60
2019-01-29T21:33:00.160Z,3.53
2019-01-29T21:35:27.659Z,3.53
2019-01-29T21:37:55.108Z,3.87
2019-01-29T21:40:22.576Z,3.70
2019-01-29T21:42:50.022Z,3.20
2019-01-29T21:45:18.212Z,3.57
2019-01-29T21:47:45.686Z,4.07
2019-01-29T21:50:16.115Z,3.40
2019-01-29T21:52:43.584Z,3.30
2019-01-29T21:55:11.030Z,3.50
2019-01-29T21:57:38.589Z,2.80
2019-01-29T22:00:06.046Z,3.57
2019-01-29T22:02:33.506Z,3.70
2019-01-29T22:05:00.964Z,3.93
2019-01-29T22:07:28.418Z,4.03
2019-01-29T22:09:56.373Z,3.73
2019-01-29T22:12:23.880Z,3.70
2019-01-29T22:14:51.337Z,3.70
2019-01-29T22:17:18.813Z,4.17
2019-01-29T22:19:46.287Z,3.97
2019-01-29T22:22:14.497Z,3.70
2019-01-29T22:24:41.964Z,3.37
2019-01-29T22:27:09.429Z,3.87
2019-01-29T22:29:36.933Z,4.13
2019-01-29T22:32:06.367Z,3.80
2019-01-29T22:34:31.891Z,3.77
2019-01-29T22:37:00.126Z,3.80
2019-01-29T22:39:27.582Z,3.40
2019-01-29T22:41:55.167Z,3.63
2019-01-29T22:44:22.609Z,3.63
2019-01-29T22:46:50.083Z,3.60
2019-01-29T22:49:17.558Z,3.70
2019-01-29T22:51:45.107Z,3.63
2019-01-29T22:54:12.563Z,3.17
2019-01-29T22:56:40.131Z,3.63
2019-01-29T22:59:07.695Z,4.13
2019-01-29T23:01:35.159Z,3.40
2019-01-29T23:04:03.637Z,3.30
2019-01-29T23:06:41.010Z,3.40
2019-01-29T23:09:08.473Z,3.57
2019-01-29T23:11:35.946Z,3.60
2019-01-29T23:14:03.643Z,4.20
2019-01-29T23:16:31.853Z,3.70
2019-01-29T23:18:59.319Z,3.20
2019-01-29T23:21:26.830Z,3.70
2019-01-29T23:23:54.290Z,4.43
2019-01-29T23:26:22.547Z,3.83
2019-01-29T23:28:50.034Z,4.03
2019-01-29T23:31:17.482Z,3.93
2019-01-29T23:33:44.939Z,3.63
2019-01-29T23:36:12.416Z,3.47
2019-01-29T23:38:39.877Z,4.07
2019-01-29T23:41:07.443Z,3.57
2019-01-29T23:43:34.916Z,4.00
2019-01-29T23:46:02.459Z,4.00
2019-01-29T23:48:29.925Z,3.50
2019-01-29T23:50:57.495Z,3.47
2019-01-29T23:53:26.472Z,3.60
2019-01-29T23:55:53.925Z,2.83
2019-01-29T23:58:21.392Z,3.33
